TimeCDT,TemperatureF,Dew PointF,Humidity,Sea Level PressureIn,VisibilityMPH,Wind Direction,Wind SpeedMPH,Gust SpeedMPH,PrecipitationIn,Events,Conditions,WindDirDegrees,DateUTC
12:51 AM,84.9,66.0,53,29.96,10.0,South,8.1,-,N/A,,Clear,190,2013-08-30 05:51:00
1:51 AM,82.9,66.0,56,29.96,10.0,SW,3.5,-,N/A,,Clear,220,2013-08-30 06:51:00
2:51 AM,82.0,68.0,62,29.96,10.0,SW,5.8,-,N/A,,Scattered Clouds,220,2013-08-30 07:51:00
3:51 AM,80.1,68.0,67,29.96,10.0,WSW,5.8,-,N/A,,Partly Cloudy,240,2013-08-30 08:51:00
4:51 AM,81.0,69.1,67,29.95,10.0,WSW,5.8,-,N/A,,Mostly Cloudy,240,2013-08-30 09:51:00
5:51 AM,80.1,70.0,71,29.96,10.0,WSW,4.6,-,N/A,,Scattered Clouds,250,2013-08-30 10:51:00
6:51 AM,79.0,70.0,74,29.97,10.0,WSW,3.5,-,N/A,,Partly Cloudy,240,2013-08-30 11:51:00
7:51 AM,80.1,70.0,71,29.98,10.0,West,3.5,-,N/A,,Scattered Clouds,260,2013-08-30 12:51:00
8:51 AM,84.0,70.0,63,29.99,10.0,Variable,3.5,-,N/A,,Partly Cloudy,0,2013-08-30 13:51:00
9:51 AM,88.0,70.0,55,30.00,10.0,West,6.9,-,N/A,,Scattered Clouds,280,2013-08-30 14:51:00
10:51 AM,91.0,66.9,45,29.99,10.0,South,5.8,-,N/A,,Clear,190,2013-08-30 15:51:00
11:51 AM,93.9,66.0,40,29.98,10.0,SSW,8.1,-,N/A,,Partly Cloudy,210,2013-08-30 16:51:00
12:51 PM,97.0,66.0,36,29.96,10.0,Variable,4.6,-,N/A,,Partly Cloudy,0,2013-08-30 17:51:00
1:51 PM,99.0,63.0,30,29.93,10.0,Calm,Calm,-,N/A,,Scattered Clouds,0,2013-08-30 18:51:00
2:51 PM,100.0,63.0,29,29.91,10.0,East,4.6,-,N/A,,Scattered Clouds,100,2013-08-30 19:51:00
3:51 PM,99.0,62.1,30,29.88,10.0,Calm,Calm,-,N/A,,Scattered Clouds,0,2013-08-30 20:51:00
4:51 PM,102.0,62.1,27,29.85,10.0,SE,9.2,-,N/A,,Scattered Clouds,140,2013-08-30 21:51:00
5:51 PM,99.0,63.0,30,29.84,10.0,SE,6.9,-,N/A,,Partly Cloudy,130,2013-08-30 22:51:00
6:51 PM,98.1,63.0,31,29.84,10.0,SE,8.1,-,N/A,,Partly Cloudy,140,2013-08-30 23:51:00
7:51 PM,96.1,63.0,33,29.84,10.0,SSE,10.4,-,N/A,,Scattered Clouds,150,2013-08-31 00:51:00
8:51 PM,93.0,66.0,41,29.86,10.0,SSE,12.7,-,N/A,,Scattered Clouds,160,2013-08-31 01:51:00
9:51 PM,91.0,66.0,44,29.86,10.0,South,11.5,-,N/A,,Partly Cloudy,170,2013-08-31 02:51:00
10:51 PM,89.1,66.9,48,29.87,10.0,South,12.7,-,N/A,,Partly Cloudy,170,2013-08-31 03:51:00
11:51 PM,87.1,66.9,51,29.88,10.0,South,11.5,-,N/A,,Clear,180,2013-08-31 04:51:00